Terminal Aerodrome Forecast
Issued by NWS

Home | Current Version | Previous Version | Text Only | Print | Product List | Glossary On
Versions: 1 2 3 4 5 6 7 8 9 10 11 12 13 14 15 16 17 18 19 20 21 22 23 24 25 26 27 28
000
FTUS41 KLWX 160526
TAFMTN
TAF
KMTN 160526Z 1606/1706 18008KT P6SM BKN110
     FM161400 15010G17KT P6SM BKN080
     FM162100 21010G19KT 6SM -SHRA VCTS OVC040CB
     FM170000 21007KT 6SM -SHRA OVC080
     FM170300 23005KT P6SM BKN070
     AMD NOT SKED=

USA.gov is the U.S. government's official web portal to all federal, state and local government web resources and services.